Time;durP1;ratioP1;P1;durP2;ratioP2;P2;SDS_P1;SDS_P2;PMS_P1;PMS_P2;Temp;Humidity;BMP_temperature;BMP_pressure;BME280_temperature;BME280_humidity;BME280_pressure;Samples;Min_cycle;Max_cycle;Signal;HPM_P1;HPM_P2
2022/12/09 00:01:23;;;;;;;2.70;2.57;;;;;;;2.94;83.51;94375.63;4362734;32;20324;-60
2022/12/09 00:03:49;;;;;;;3.10;3.00;;;;;;;2.74;83.91;94376.50;4344282;32;20292;-60
2022/12/09 00:06:26;;;;;;;5.73;5.37;;;;;;;2.65;84.93;94373.66;4350139;32;20315;-59
2022/12/09 00:09:03;;;;;;;4.20;3.80;;;;;;;2.39;85.57;94378.16;4324278;32;20392;-60
2022/12/09 00:11:30;;;;;;;3.50;3.37;;;;;;;2.34;86.31;94369.53;4370585;32;20331;-60
2022/12/09 00:13:58;;;;;;;3.53;3.40;;;;;;;2.25;86.45;94365.91;4356952;32;20288;-60
2022/12/09 00:16:25;;;;;;;5.37;4.90;;;;;;;2.51;86.12;94370.00;4350837;32;20285;-60
2022/12/09 00:18:52;;;;;;;3.60;3.40;;;;;;;2.56;85.29;94372.62;4370673;32;20276;-60
2022/12/09 00:21:23;;;;;;;4.23;3.93;;;;;;;2.69;85.10;94369.47;4372291;32;20523;-60
2022/12/09 00:23:51;;;;;;;4.03;3.83;;;;;;;2.57;85.29;94361.09;4377928;32;20307;-60
2022/12/09 00:26:20;;;;;;;4.13;3.93;;;;;;;2.53;85.32;94360.06;4342264;32;20289;-60
2022/12/09 00:28:52;;;;;;;3.00;2.80;;;;;;;2.59;85.15;94361.63;4344097;32;20288;-60
2022/12/09 00:31:23;;;;;;;3.20;3.00;;;;;;;2.49;85.18;94350.41;4378083;32;20414;-60
2022/12/09 00:33:51;;;;;;;4.00;3.70;;;;;;;2.70;84.68;94344.06;4358230;32;20359;-60
2022/12/09 00:36:20;;;;;;;4.07;3.87;;;;;;;2.65;84.54;94344.06;4349556;32;20277;-59
2022/12/09 00:38:50;;;;;;;3.57;3.20;;;;;;;2.40;85.25;94337.87;4325635;32;20286;-59
2022/12/09 00:41:20;;;;;;;3.60;3.30;;;;;;;2.42;85.29;94335.78;4377268;32;20272;-59
2022/12/09 00:43:47;;;;;;;3.50;3.30;;;;;;;2.22;85.46;94341.06;4372921;32;20316;-60
2022/12/09 00:46:17;;;;;;;2.77;2.67;;;;;;;2.08;85.83;94335.56;4352090;32;20291;-61
2022/12/09 00:48:46;;;;;;;3.13;3.03;;;;;;;1.91;86.21;94336.91;4336724;32;20293;-59
2022/12/09 00:51:17;;;;;;;3.30;3.20;;;;;;;1.95;86.03;94330.87;4337110;32;20315;-61
2022/12/09 00:53:46;;;;;;;2.93;2.83;;;;;;;1.73;86.48;94327.78;4354556;32;20327;-60
2022/12/09 00:56:13;;;;;;;2.97;2.80;;;;;;;1.82;86.13;94325.44;4383748;32;20288;-62
2022/12/09 00:58:42;;;;;;;2.37;2.27;;;;;;;1.74;86.91;94318.88;4364475;32;20307;-63
2022/12/09 01:01:07;;;;;;;5.43;5.03;;;;;;;1.45;87.53;94318.66;4360350;32;20522;-62
2022/12/09 01:03:37;;;;;;;2.17;2.07;;;;;;;1.84;86.22;94318.91;4373101;32;20352;-62
2022/12/09 01:06:09;;;;;;;3.17;3.00;;;;;;;1.97;84.68;94313.13;4344501;32;20232;-62
2022/12/09 01:08:40;;;;;;;2.90;2.80;;;;;;;1.67;85.49;94308.69;4346433;32;20285;-62
2022/12/09 01:11:17;;;;;;;4.30;3.33;;;;;;;1.59;86.23;94313.69;4348101;32;20288;-62
2022/12/09 01:13:44;;;;;;;2.03;2.00;;;;;;;1.46;86.69;94306.34;4357533;32;20283;-62
2022/12/09 01:16:23;;;;;;;2.83;2.72;;;;;;;1.47;86.59;94307.91;4345798;32;20281;-63
2022/12/09 01:18:54;;;;;;;2.17;2.10;;;;;;;1.55;85.95;94310.00;4365991;32;20180;-62
2022/12/09 01:21:23;;;;;;;2.73;2.57;;;;;;;1.82;84.95;94296.66;4350450;32;20298;-62
2022/12/09 01:23:50;;;;;;;2.10;2.00;;;;;;;1.96;84.18;94311.53;4405055;32;20276;-62
2022/12/09 01:26:17;;;;;;;1.63;1.63;;;;;;;2.04;83.42;94305.78;4363858;32;20276;-62
2022/12/09 01:28:44;;;;;;;2.47;2.37;;;;;;;1.88;84.33;94306.06;4348432;32;20299;-62
2022/12/09 01:31:18;;;;;;;2.97;2.77;;;;;;;1.82;85.23;94320.97;4377347;32;20272;-63
2022/12/09 01:33:45;;;;;;;2.90;2.70;;;;;;;1.98;84.56;94296.38;4386051;32;20279;-64
2022/12/09 01:36:20;;;;;;;2.03;1.93;;;;;;;1.71;85.57;94282.81;4369581;32;20284;-62
2022/12/09 01:38:47;;;;;;;3.00;2.77;;;;;;;1.79;85.18;94294.56;4370208;32;20284;-62
2022/12/09 01:41:19;;;;;;;4.80;4.47;;;;;;;1.99;84.34;94284.87;4368757;32;20280;-62
2022/12/09 01:44:12;;;;;;;2.17;2.07;;;;;;;1.95;84.80;94298.72;4375680;32;20337;-62
2022/12/09 01:46:39;;;;;;;2.53;2.13;;;;;;;2.08;84.46;94298.94;4344278;32;20281;-62
2022/12/09 01:49:11;;;;;;;2.43;2.33;;;;;;;2.27;83.21;94291.34;4376112;32;20277;-62
2022/12/09 01:51:38;;;;;;;1.53;1.43;;;;;;;1.99;83.99;94287.47;4365717;32;20311;-63
2022/12/09 01:54:12;;;;;;;2.03;1.93;;;;;;;2.00;84.57;94291.66;4353310;32;20264;-62
2022/12/09 01:56:39;;;;;;;2.80;2.60;;;;;;;1.83;85.69;94285.16;4369952;32;20341;-61
2022/12/09 01:59:11;;;;;;;3.10;2.80;;;;;;;1.85;85.98;94278.63;4355316;32;20269;-61
2022/12/09 02:01:47;;;;;;;3.23;3.07;;;;;;;1.78;85.53;94275.50;4389788;32;20277;-62
2022/12/09 02:04:12;;;;;;;3.77;3.47;;;;;;;1.72;85.20;94272.09;4364211;32;20276;-61
2022/12/09 02:06:38;;;;;;;3.13;2.83;;;;;;;1.86;85.65;94274.97;4377379;32;20342;-61
2022/12/09 02:09:24;;;;;;;1.90;1.80;;;;;;;1.85;85.29;94273.41;4357569;32;20189;-61
2022/12/09 02:12:19;;;;;;;1.87;1.77;;;;;;;1.70;85.82;94271.56;4346405;32;20196;-61
2022/12/09 02:15:16;;;;;;;1.53;1.53;;;;;;;1.44;86.02;94264.03;4374326;32;20279;-61
2022/12/09 02:18:03;;;;;;;1.53;1.43;;;;;;;1.57;86.24;94258.28;4343541;32;20295;-61
2022/12/09 02:20:44;;;;;;;1.60;1.50;;;;;;;1.71;85.32;94257.47;4335891;32;20415;-61
2022/12/09 02:23:37;;;;;;;2.10;2.00;;;;;;;1.89;84.21;94248.28;4346657;32;20347;-62
2022/12/09 02:26:29;;;;;;;2.40;2.30;;;;;;;1.77;84.57;94245.16;4361146;32;20289;-61
2022/12/09 02:29:13;;;;;;;1.80;1.70;;;;;;;1.82;84.06;94237.31;4327065;32;20323;-61
2022/12/09 02:32:12;;;;;;;1.60;1.60;;;;;;;1.85;84.15;94236.81;4316429;32;20304;-62
2022/12/09 02:34:52;;;;;;;2.60;1.43;;;;;;;2.02;83.37;94232.03;4274567;33;20364;-61
2022/12/09 02:37:40;;;;;;;1.60;1.57;;;;;;;2.06;83.25;94233.06;4320992;33;20278;-61
2022/12/09 02:40:20;;;;;;;1.40;1.30;;;;;;;2.04;83.24;94231.78;4362343;32;20317;-62
2022/12/09 02:42:48;;;;;;;1.73;1.70;;;;;;;2.12;83.16;94241.66;4361807;32;20303;-61
2022/12/09 02:45:15;;;;;;;1.57;1.57;;;;;;;2.12;82.80;94235.66;4346406;32;20304;-61
2022/12/09 02:47:47;;;;;;;1.10;1.10;;;;;;;1.83;82.93;94240.72;4315975;32;20334;-61
2022/12/09 02:50:21;;;;;;;1.63;1.53;;;;;;;2.08;83.05;94230.94;4336889;32;20312;-61
2022/12/09 02:52:50;;;;;;;1.50;1.40;;;;;;;2.20;82.27;94228.06;4370001;32;20285;-61
2022/12/09 02:55:19;;;;;;;1.10;1.00;;;;;;;2.27;81.27;94230.38;4358107;32;20342;-60
2022/12/09 02:57:49;;;;;;;1.63;1.50;;;;;;;2.41;80.96;94231.34;4353068;32;20281;-59
2022/12/09 03:00:15;;;;;;;2.87;1.67;;;;;;;2.41;80.66;94223.50;4362825;32;20289;-61
2022/12/09 03:02:46;;;;;;;1.93;1.83;;;;;;;2.47;80.48;94217.22;4358625;32;20359;-61
2022/12/09 03:05:24;;;;;;;1.43;1.40;;;;;;;2.46;80.73;94199.94;4377196;32;20195;-60
2022/12/09 03:08:09;;;;;;;1.37;1.27;;;;;;;2.49;80.39;94198.63;4338660;32;20280;-60
2022/12/09 03:10:59;;;;;;;2.37;2.17;;;;;;;2.38;80.34;94208.34;4344539;32;20344;-60
2022/12/09 03:14:01;;;;;;;4.17;2.10;;;;;;;2.52;80.26;94192.81;4375701;32;20277;-60
2022/12/09 03:17:12;;;;;;;1.17;1.17;;;;;;;2.37;81.03;94185.84;4352429;32;20465;-60
2022/12/09 03:20:27;;;;;;;2.20;2.10;;;;;;;2.33;80.69;94177.75;4334940;32;20281;-61
2022/12/09 03:22:57;;;;;;;1.20;1.10;;;;;;;2.63;79.63;94181.25;4326613;32;20304;-61
2022/12/09 03:25:32;;;;;;;2.97;2.03;;;;;;;2.51;79.81;94186.81;4350756;32;20281;-60
2022/12/09 03:28:35;;;;;;;1.20;1.20;;;;;;;2.54;79.46;94188.88;4349830;32;20384;-60
2022/12/09 03:31:27;;;;;;;2.13;2.03;;;;;;;2.44;79.82;94188.19;4346193;32;20303;-61
2022/12/09 03:33:57;;;;;;;1.63;1.40;;;;;;;2.74;78.24;94190.59;4380688;32;20347;-60
2022/12/09 03:36:31;;;;;;;1.03;1.03;;;;;;;2.49;79.04;94193.37;4366352;32;20310;-60
2022/12/09 03:38:59;;;;;;;1.87;1.87;;;;;;;2.54;78.97;94181.03;4371355;32;24156;-60
2022/12/09 03:41:29;;;;;;;1.90;1.80;;;;;;;2.44;79.09;94186.34;4350152;32;20383;-60
2022/12/09 03:44:10;;;;;;;2.17;2.07;;;;;;;2.48;79.16;94190.00;4363869;32;20311;-60
2022/12/09 03:46:36;;;;;;;1.80;1.70;;;;;;;2.47;79.31;94185.81;4369183;32;20307;-60
2022/12/09 03:49:01;;;;;;;2.10;2.03;;;;;;;2.25;80.04;94178.34;4370282;32;20285;-60
2022/12/09 03:51:35;;;;;;;3.43;2.00;;;;;;;2.13;80.49;94179.69;4365445;32;20313;-60
2022/12/09 03:54:34;;;;;;;1.53;1.53;;;;;;;2.36;79.85;94171.19;4365998;32;20179;-60
2022/12/09 03:57:00;;;;;;;0.97;0.97;;;;;;;2.23;80.41;94169.19;4369696;32;20333;-60
2022/12/09 03:59:31;;;;;;;1.33;1.33;;;;;;;2.23;80.69;94162.13;4375496;32;20322;-61
2022/12/09 04:01:57;;;;;;;1.40;1.40;;;;;;;2.20;80.75;94148.78;4386663;32;20269;-61
2022/12/09 04:04:22;;;;;;;1.50;1.33;;;;;;;2.38;79.83;94150.78;4371005;32;20281;-61
2022/12/09 04:06:50;;;;;;;1.97;1.87;;;;;;;2.48;79.54;94155.19;4371903;32;20235;-61
2022/12/09 04:09:16;;;;;;;1.90;1.80;;;;;;;2.04;80.85;94161.16;4371022;32;20180;-61
2022/12/09 04:11:41;;;;;;;2.07;2.00;;;;;;;2.18;80.51;94156.13;4386182;32;20326;-61
2022/12/09 04:14:07;;;;;;;1.70;1.60;;;;;;;2.08;81.05;94160.34;4377862;32;20195;-62
2022/12/09 04:16:32;;;;;;;2.43;1.83;;;;;;;2.41;80.33;94166.72;4376925;32;20177;-61
2022/12/09 04:18:57;;;;;;;1.20;1.20;;;;;;;2.38;80.14;94163.84;4374953;32;20290;-61
2022/12/09 04:21:23;;;;;;;1.53;1.13;;;;;;;2.26;80.13;94169.44;4371762;32;20192;-61
2022/12/09 04:23:48;;;;;;;1.53;1.13;;;;;;;2.26;80.65;94152.94;4380037;32;20263;-60
2022/12/09 04:26:16;;;;;;;2.13;2.03;;;;;;;2.30;80.05;94153.94;4377703;32;20210;-61
2022/12/09 04:28:42;;;;;;;1.00;1.00;;;;;;;2.48;79.95;94153.34;4368743;32;20223;-60
2022/12/09 04:31:11;;;;;;;1.87;1.67;;;;;;;2.60;79.33;94153.00;4383476;32;20338;-61
2022/12/09 04:33:37;;;;;;;1.83;1.83;;;;;;;2.59;79.39;94146.97;4376778;32;20192;-62
2022/12/09 04:36:04;;;;;;;2.77;2.53;;;;;;;2.45;79.72;94135.56;4387597;32;20378;-60
2022/12/09 04:38:30;;;;;;;1.47;1.37;;;;;;;2.46;79.58;94124.06;4367620;32;20203;-60
2022/12/09 04:40:55;;;;;;;6.63;2.27;;;;;;;2.29;80.27;94115.75;4380281;32;20277;-61
2022/12/09 04:43:20;;;;;;;2.53;2.37;;;;;;;2.36;80.21;94116.25;4366799;32;20189;-60
2022/12/09 04:45:46;;;;;;;1.17;1.03;;;;;;;2.21;80.64;94113.72;4363418;32;20242;-60
2022/12/09 04:48:11;;;;;;;2.27;2.07;;;;;;;2.04;81.61;94103.63;4374299;32;20223;-61
2022/12/09 04:50:39;;;;;;;1.83;1.73;;;;;;;1.96;81.83;94102.34;4371799;32;20181;-61
2022/12/09 04:53:04;;;;;;;1.53;1.53;;;;;;;1.99;82.50;94101.81;4378091;32;20194;-61
2022/12/09 04:55:30;;;;;;;0.93;0.93;;;;;;;1.82;82.86;94111.84;4371427;32;20284;-61
2022/12/09 04:57:55;;;;;;;0.97;0.97;;;;;;;1.86;83.00;94107.66;4384254;32;20260;-61
2022/12/09 05:00:20;;;;;;;1.00;1.00;;;;;;;2.03;82.36;94115.16;4374522;32;20210;-61
2022/12/09 05:02:46;;;;;;;2.67;2.47;;;;;;;1.87;82.72;94109.19;4375962;32;20198;-58
2022/12/09 05:05:11;;;;;;;1.83;1.80;;;;;;;1.93;82.54;94105.50;4388733;32;20192;-58
2022/12/09 05:07:36;;;;;;;3.00;2.57;;;;;;;2.06;82.30;94099.69;4378469;32;20204;-57
2022/12/09 05:10:02;;;;;;;3.20;1.37;;;;;;;2.29;81.30;94090.38;4360640;32;20189;-58
2022/12/09 05:12:27;;;;;;;3.43;2.70;;;;;;;2.16;81.25;94088.38;4357905;32;20207;-58
2022/12/09 05:14:52;;;;;;;2.47;2.37;;;;;;;1.99;82.32;94086.13;4370944;32;20189;-57
2022/12/09 05:17:18;;;;;;;1.03;1.03;;;;;;;2.18;81.92;94085.50;4370428;32;20304;-57
2022/12/09 05:19:43;;;;;;;1.00;0.97;;;;;;;2.11;81.64;94082.38;4373831;32;20223;-59
2022/12/09 05:22:08;;;;;;;3.23;2.40;;;;;;;2.03;81.93;94092.38;4355549;32;20211;-58
2022/12/09 05:24:34;;;;;;;0.83;0.83;;;;;;;1.96;82.37;94101.56;4367607;32;20211;-58
2022/12/09 05:26:59;;;;;;;2.23;2.03;;;;;;;2.15;82.08;94112.19;4365634;32;20189;-58
2022/12/09 05:29:25;;;;;;;1.83;1.70;;;;;;;2.08;82.29;94106.50;4368035;32;20184;-58
2022/12/09 05:31:50;;;;;;;1.57;1.47;;;;;;;1.84;82.66;94104.53;4378264;32;20195;-58
2022/12/09 05:34:16;;;;;;;1.67;1.67;;;;;;;1.84;83.29;94104.53;4364102;32;20205;-58
2022/12/09 05:36:42;;;;;;;2.40;2.30;;;;;;;1.92;83.19;94096.09;4365387;32;20188;-58
2022/12/09 05:39:07;;;;;;;2.00;1.90;;;;;;;1.93;83.07;94087.19;4363140;32;20352;-57
2022/12/09 05:41:32;;;;;;;3.30;3.10;;;;;;;1.83;83.42;94089.09;4369560;32;20204;-58
2022/12/09 05:43:58;;;;;;;1.83;1.73;;;;;;;1.95;83.49;94079.88;4385607;32;20215;-57
2022/12/09 05:46:23;;;;;;;1.40;1.40;;;;;;;1.93;84.07;94075.97;4391601;32;20208;-59
2022/12/09 05:48:48;;;;;;;2.73;1.53;;;;;;;1.76;84.70;94086.78;4365227;32;20290;-58
2022/12/09 05:51:25;;;;;;;2.03;1.60;;;;;;;2.04;84.10;94083.50;4374934;32;20213;-58
2022/12/09 05:53:51;;;;;;;1.93;1.90;;;;;;;2.07;83.87;94084.78;4391920;32;20189;-59
2022/12/09 05:56:18;;;;;;;2.90;2.77;;;;;;;1.63;85.65;94087.34;4367907;32;20331;-58
2022/12/09 05:58:43;;;;;;;4.23;2.77;;;;;;;1.72;85.68;94077.91;4360300;32;20289;-58
2022/12/09 06:01:09;;;;;;;2.37;2.27;;;;;;;1.82;85.61;94080.47;4369006;32;20325;-61
2022/12/09 06:03:35;;;;;;;3.23;3.03;;;;;;;1.63;86.09;94069.84;4372585;32;20189;-61
2022/12/09 06:06:11;;;;;;;3.60;3.00;;;;;;;1.81;85.73;94071.06;4369710;32;20252;-61
2022/12/09 06:08:37;;;;;;;2.80;2.60;;;;;;;1.78;85.40;94071.59;4378228;32;20363;-61
2022/12/09 06:11:04;;;;;;;2.57;2.47;;;;;;;2.09;84.91;94066.97;4368415;32;20346;-61
2022/12/09 06:13:29;;;;;;;2.87;2.67;;;;;;;1.88;85.25;94062.91;4374206;32;20292;-61
2022/12/09 06:15:54;;;;;;;3.50;2.77;;;;;;;1.84;85.57;94065.31;4368974;32;20339;-61
2022/12/09 06:18:20;;;;;;;2.80;2.70;;;;;;;1.98;84.89;94060.25;4377049;32;20234;-61
2022/12/09 06:20:45;;;;;;;3.17;2.97;;;;;;;1.88;84.86;94066.31;4369224;32;20193;-61
2022/12/09 06:23:10;;;;;;;2.60;2.10;;;;;;;1.81;85.05;94060.62;4373740;32;20227;-61
2022/12/09 06:25:36;;;;;;;2.27;2.17;;;;;;;1.86;85.06;94055.37;4378224;32;20199;-61
2022/12/09 06:28:02;;;;;;;2.13;1.93;;;;;;;1.80;84.42;94053.81;4367423;32;20189;-61
2022/12/09 06:30:27;;;;;;;1.60;1.60;;;;;;;1.74;84.42;94041.81;4372848;32;20330;-61
2022/12/09 06:32:53;;;;;;;2.30;2.20;;;;;;;1.80;84.55;94038.13;4374849;32;20180;-61
2022/12/09 06:35:18;;;;;;;1.87;1.77;;;;;;;1.70;84.73;94031.13;4358210;32;20256;-61
2022/12/09 06:37:43;;;;;;;2.40;2.30;;;;;;;1.93;83.89;94034.13;4364452;32;20181;-61
2022/12/09 06:40:09;;;;;;;1.93;1.73;;;;;;;1.68;84.01;94027.19;4361920;32;20196;-61
2022/12/09 06:42:35;;;;;;;1.77;1.63;;;;;;;1.47;84.89;94036.19;4373592;32;20204;-61
2022/12/09 06:45:00;;;;;;;1.10;1.10;;;;;;;1.41;85.50;94037.28;4371394;32;20287;-61
2022/12/09 06:47:25;;;;;;;1.60;1.60;;;;;;;1.57;85.02;94041.37;4367716;32;20279;-61
2022/12/09 06:49:51;;;;;;;2.00;1.90;;;;;;;1.77;84.50;94036.06;4389484;32;20189;-61
2022/12/09 06:52:16;;;;;;;1.73;1.63;;;;;;;1.86;83.40;94024.00;4369552;32;20199;-61
2022/12/09 06:54:41;;;;;;;0.93;0.93;;;;;;;1.78;83.77;94021.94;4371154;32;20303;-61
2022/12/09 06:57:07;;;;;;;2.20;1.67;;;;;;;1.66;84.36;94024.09;4362579;32;20260;-61
2022/12/09 06:59:32;;;;;;;0.93;0.93;;;;;;;1.62;84.12;94023.06;4363826;32;20206;-61
2022/12/09 07:01:57;;;;;;;2.20;2.13;;;;;;;1.55;84.62;94033.03;4363632;32;20181;-61
2022/12/09 07:04:23;;;;;;;2.43;2.27;;;;;;;1.72;83.89;94029.00;4367851;32;20188;-61
2022/12/09 07:06:48;;;;;;;1.57;1.40;;;;;;;1.71;84.28;94027.44;4360209;32;20255;-61
2022/12/09 07:09:18;;;;;;;1.47;1.47;;;;;;;1.87;84.17;94020.28;4364141;32;20193;-61
2022/12/09 07:11:46;;;;;;;2.80;1.23;;;;;;;1.92;83.01;94022.88;4363104;32;20192;-61
2022/12/09 07:14:14;;;;;;;1.00;1.00;;;;;;;2.05;82.89;94026.75;4361681;32;20272;-61
2022/12/09 07:16:40;;;;;;;5.77;1.97;;;;;;;2.08;82.82;94035.88;4358257;32;20487;-61
2022/12/09 07:19:06;;;;;;;2.90;2.80;;;;;;;2.16;82.66;94038.69;4378218;32;20284;-61
2022/12/09 07:21:32;;;;;;;3.00;2.47;;;;;;;2.28;82.12;94043.59;4375723;32;20291;-61
2022/12/09 07:23:59;;;;;;;1.23;1.23;;;;;;;2.13;82.07;94035.81;4364313;32;20236;-60
2022/12/09 07:26:25;;;;;;;2.07;1.87;;;;;;;2.21;81.53;94040.50;4365885;32;20360;-61
2022/12/09 07:28:50;;;;;;;2.47;1.83;;;;;;;2.21;81.77;94043.09;4361203;32;20308;-61
2022/12/09 07:31:16;;;;;;;1.10;1.10;;;;;;;1.98;82.09;94039.34;4363806;32;20180;-54
2022/12/09 07:33:41;;;;;;;1.93;1.87;;;;;;;5.68;100.00;94018.66;4365309;32;20239;-40
2022/12/09 07:36:07;;;;;;;0.50;0.50;;;;;;;7.61;100.00;94010.63;4361377;32;20280;-58
2022/12/09 07:38:32;;;;;;;1.93;1.83;;;;;;;8.66;100.00;93995.34;4370464;32;20243;-44
2022/12/09 07:41:04;;;;;;;1.07;1.07;;;;;;;9.25;75.23;93984.94;4362714;32;20189;-42
2022/12/09 07:43:32;;;;;;;1.40;1.40;;;;;;;9.32;67.36;93998.44;4355798;32;20265;-42
2022/12/09 07:45:58;;;;;;;1.93;1.83;;;;;;;10.20;65.99;93992.34;4368885;32;20351;-43
2022/12/09 07:48:23;;;;;;;2.20;2.10;;;;;;;10.49;62.06;94002.13;4371716;32;20299;-42
2022/12/09 07:50:48;;;;;;;3.30;2.10;;;;;;;10.87;60.54;93994.75;4367951;32;20243;-43
2022/12/09 07:53:13;;;;;;;1.27;1.27;;;;;;;10.92;58.19;93994.53;4362822;32;20203;-44
2022/12/09 07:55:39;;;;;;;1.33;1.33;;;;;;;11.00;68.87;93993.69;4366054;32;20279;-46
2022/12/09 07:58:04;;;;;;;2.10;2.00;;;;;;;11.35;74.19;93999.38;4373414;32;20208;-53
2022/12/09 08:00:29;;;;;;;2.43;2.33;;;;;;;9.11;55.19;94014.25;4373810;32;20317;-55
2022/12/09 08:02:55;;;;;;;2.37;2.27;;;;;;;6.99;60.17;94018.63;4392739;32;20299;-53
2022/12/09 08:05:20;;;;;;;1.20;1.20;;;;;;;4.94;66.76;94025.09;4369473;32;20200;-57
2022/12/09 08:07:45;;;;;;;2.07;1.97;;;;;;;4.87;68.83;94019.44;4379056;32;20192;-52
2022/12/09 08:10:11;;;;;;;2.07;1.97;;;;;;;3.95;71.77;94028.72;4369127;32;20231;-56
2022/12/09 08:12:36;;;;;;;1.93;1.83;;;;;;;3.17;75.88;94031.78;4368308;32;20240;-53
2022/12/09 08:15:02;;;;;;;2.50;2.40;;;;;;;2.82;78.41;94035.53;4367402;32;20219;-56
2022/12/09 08:17:29;;;;;;;3.60;1.90;;;;;;;2.65;79.64;94022.09;4382751;32;20267;-55
2022/12/09 08:19:54;;;;;;;2.40;2.30;;;;;;;2.66;79.88;94016.59;4369943;32;20197;-54
2022/12/09 08:22:20;;;;;;;2.70;2.50;;;;;;;2.61;80.79;94008.75;4360930;32;20277;-54
2022/12/09 08:24:45;;;;;;;1.70;1.70;;;;;;;2.85;79.87;93994.94;4364433;32;20245;-52
2022/12/09 08:27:10;;;;;;;2.70;2.50;;;;;;;2.83;79.88;94010.13;4385099;32;20260;-52
2022/12/09 08:29:36;;;;;;;3.13;2.93;;;;;;;2.58;80.87;94006.69;4391406;32;20188;-51
2022/12/09 08:32:01;;;;;;;2.13;1.83;;;;;;;2.39;81.52;94006.59;4386495;32;20207;-53
2022/12/09 08:34:27;;;;;;;1.87;1.87;;;;;;;2.64;81.34;94012.69;4366966;32;20263;-54
2022/12/09 08:36:52;;;;;;;3.03;2.83;;;;;;;2.92;80.13;94005.84;4365930;32;20199;-51
2022/12/09 08:39:17;;;;;;;2.00;1.90;;;;;;;2.84;80.34;94006.47;4360347;32;20251;-52
2022/12/09 08:41:43;;;;;;;2.77;2.67;;;;;;;2.57;81.29;94002.50;4367997;32;20255;-50
2022/12/09 08:44:14;;;;;;;2.57;2.40;;;;;;;2.95;80.49;94002.66;4366738;32;20185;-55
2022/12/09 08:46:42;;;;;;;5.10;2.30;;;;;;;2.53;81.54;93998.88;4368728;32;20227;-56
2022/12/09 08:49:09;;;;;;;2.80;2.67;;;;;;;2.96;80.19;93999.78;4383805;32;20330;-58
2022/12/09 08:51:35;;;;;;;2.97;2.77;;;;;;;2.70;80.83;93990.62;4371137;32;20300;-55
2022/12/09 08:54:02;;;;;;;2.50;2.40;;;;;;;2.80;81.22;93989.75;4368661;32;20289;-54
2022/12/09 08:56:27;;;;;;;3.17;3.00;;;;;;;2.60;81.65;93982.88;4368758;32;20536;-56
2022/12/09 08:58:53;;;;;;;4.03;3.63;;;;;;;2.78;81.80;93976.16;4367348;32;20329;-50
2022/12/09 09:01:22;;;;;;;4.63;4.33;;;;;;;2.71;82.20;93979.84;4367209;32;20185;-56
2022/12/09 09:03:48;;;;;;;4.10;3.80;;;;;;;2.53;82.61;93975.31;4378469;32;20311;-53
2022/12/09 09:06:15;;;;;;;2.87;2.77;;;;;;;2.59;82.85;93984.69;4364553;32;20281;-51
2022/12/09 09:08:41;;;;;;;2.30;2.20;;;;;;;2.93;81.32;93981.22;4359012;32;20362;-53
2022/12/09 09:11:12;;;;;;;3.97;3.60;;;;;;;2.82;81.14;93990.25;4371284;32;20288;-53
2022/12/09 09:13:39;;;;;;;4.47;4.23;;;;;;;2.91;81.23;93991.97;4374881;32;20280;-53
2022/12/09 09:16:10;;;;;;;3.90;3.70;;;;;;;3.06;80.88;93997.06;4367656;32;20284;-59
2022/12/09 09:18:35;;;;;;;3.73;3.53;;;;;;;2.90;81.42;94007.97;4379623;32;20297;-60
2022/12/09 09:21:01;;;;;;;2.90;2.67;;;;;;;2.72;81.32;93996.34;4370706;32;20276;-61
2022/12/09 09:23:26;;;;;;;5.03;4.60;;;;;;;2.82;81.88;94000.72;4376935;32;20180;-60
2022/12/09 09:25:51;;;;;;;3.73;3.53;;;;;;;2.98;80.66;94002.91;4363742;32;20185;-59
2022/12/09 09:28:17;;;;;;;3.27;3.07;;;;;;;2.72;81.70;93991.12;4367188;32;20189;-59
2022/12/09 09:30:42;;;;;;;3.60;3.40;;;;;;;2.98;80.94;93997.66;4374419;32;20176;-59
2022/12/09 09:33:08;;;;;;;3.90;3.70;;;;;;;2.94;80.67;93995.87;4382369;32;20192;-60
2022/12/09 09:35:36;;;;;;;4.47;4.17;;;;;;;3.03;80.93;93994.22;4367319;32;20216;-59
2022/12/09 09:38:02;;;;;;;5.73;3.50;;;;;;;3.03;80.63;93999.44;4339693;32;20343;-58
2022/12/09 09:40:50;;;;;;;2.70;2.60;;;;;;;2.84;81.59;93990.75;4331363;32;20530;-59
2022/12/09 09:43:25;;;;;;;3.07;2.97;;;;;;;3.05;80.65;93986.84;4364130;32;20314;-61
2022/12/09 09:45:56;;;;;;;4.50;4.10;;;;;;;3.21;79.19;93995.31;4357976;32;20287;-60
2022/12/09 09:48:29;;;;;;;3.23;3.07;;;;;;;3.01;79.43;93976.16;4373505;32;20318;-58
2022/12/09 09:51:19;;;;;;;2.63;2.53;;;;;;;2.94;80.23;93970.47;4336565;32;20335;-60
2022/12/09 09:53:50;;;;;;;2.53;2.43;;;;;;;2.97;80.18;93967.28;4359272;32;20288;-58
2022/12/09 09:56:39;;;;;;;3.13;2.93;;;;;;;3.06;80.36;93975.31;4356606;32;20310;-60
2022/12/09 09:59:25;;;;;;;4.87;4.47;;;;;;;2.75;80.97;93967.78;4358723;32;20285;-57
2022/12/09 10:02:12;;;;;;;4.33;4.07;;;;;;;2.79;82.00;93960.16;4357023;32;20276;-56
2022/12/09 10:05:14;;;;;;;3.07;2.90;;;;;;;2.92;80.41;93950.84;4369243;32;20351;-55
2022/12/09 10:07:41;;;;;;;2.20;2.10;;;;;;;2.97;80.28;93935.06;4378472;32;20290;-53
2022/12/09 10:10:44;;;;;;;2.90;2.70;;;;;;;3.15;79.83;93944.81;4368128;32;20269;-56
2022/12/09 10:13:29;;;;;;;3.53;3.30;;;;;;;3.06;80.09;93938.66;4351526;32;20277;-56
2022/12/09 10:16:19;;;;;;;3.63;3.43;;;;;;;3.01;80.07;93941.31;4384546;32;20279;-57
2022/12/09 10:18:58;;;;;;;3.57;3.33;;;;;;;2.84;80.48;93933.16;4316643;32;20273;-53
2022/12/09 10:21:27;;;;;;;4.33;3.73;;;;;;;2.51;81.87;93930.34;4355221;32;20292;-52
2022/12/09 10:23:54;;;;;;;4.03;2.97;;;;;;;2.45;82.29;93936.69;4364666;32;20273;-49
2022/12/09 10:26:29;;;;;;;10.27;3.50;;;;;;;2.50;82.90;93936.63;4359889;32;20294;-51
2022/12/09 10:29:43;;;;;;;3.17;3.07;;;;;;;2.82;81.75;93932.63;4374799;32;20329;-52
2022/12/09 10:32:15;;;;;;;4.40;4.13;;;;;;;2.90;81.53;93929.41;4331144;32;20293;-52
2022/12/09 10:34:42;;;;;;;4.87;4.47;;;;;;;2.69;82.00;93937.50;4332148;32;20290;-53
2022/12/09 10:37:44;;;;;;;5.53;4.97;;;;;;;2.74;81.90;93934.81;4289758;33;20293;-53
2022/12/09 10:40:10;;;;;;;3.40;3.20;;;;;;;2.44;83.25;93924.66;4278013;33;20331;-53
2022/12/09 10:45:56;;;;;;;2.47;2.37;;;;;;;2.47;83.58;93923.34;4290278;33;20248;-51
2022/12/09 10:48:29;;;;;;;7.20;3.63;;;;;;;2.73;82.92;93920.16;4302270;33;20287;-50
2022/12/09 10:51:03;;;;;;;4.40;4.00;;;;;;;2.72;83.07;93923.81;4311019;32;20348;-52
2022/12/09 10:54:00;;;;;;;3.37;3.07;;;;;;;3.07;82.08;93916.63;4315530;32;20300;-47
2022/12/09 10:57:20;;;;;;;2.43;2.30;;;;;;;3.01;81.61;93909.91;4343508;32;20285;-51
2022/12/09 11:00:20;;;;;;;4.87;4.47;;;;;;;2.75;82.65;93904.94;4330301;32;20281;-53
2022/12/09 11:02:52;;;;;;;3.93;3.73;;;;;;;2.62;84.05;93897.00;4362512;32;20327;-49
2022/12/09 11:05:27;;;;;;;4.33;4.13;;;;;;;2.90;82.74;93895.37;4353253;32;20322;-51
2022/12/09 11:07:57;;;;;;;3.90;3.63;;;;;;;2.89;82.76;93889.34;4348317;32;20285;-53
2022/12/09 11:10:30;;;;;;;7.00;4.57;;;;;;;2.81;83.00;93886.56;4348553;32;20277;-50
2022/12/09 11:13:08;;;;;;;5.47;4.43;;;;;;;2.70;83.40;93886.69;4369221;32;20287;-50
2022/12/09 11:15:44;;;;;;;5.43;3.97;;;;;;;2.70;83.09;93876.19;4355915;32;20328;-52
2022/12/09 11:18:30;;;;;;;5.23;4.73;;;;;;;2.86;83.32;93873.44;4346749;32;20279;-54
2022/12/09 11:21:10;;;;;;;4.70;4.33;;;;;;;3.07;82.37;93862.41;4377532;32;20311;-50
2022/12/09 11:23:39;;;;;;;10.83;3.70;;;;;;;3.07;82.43;93857.19;4332540;32;20274;-54
2022/12/09 11:26:32;;;;;;;4.43;4.13;;;;;;;3.00;81.95;93853.34;4339219;32;20281;-51
2022/12/09 11:29:22;;;;;;;4.87;4.57;;;;;;;3.00;82.61;93853.34;4352059;32;20498;-54
2022/12/09 11:31:50;;;;;;;3.43;3.23;;;;;;;3.01;82.58;93849.66;4371717;32;20299;-49
2022/12/09 11:34:26;;;;;;;4.17;3.80;;;;;;;3.11;81.52;93846.91;4358500;32;20349;-53
2022/12/09 11:36:56;;;;;;;4.77;4.47;;;;;;;2.87;82.06;93846.19;4381556;32;20318;-52
2022/12/09 11:39:33;;;;;;;4.73;4.33;;;;;;;2.96;82.14;93842.63;4350637;32;20276;-57
2022/12/09 11:42:26;;;;;;;4.10;3.90;;;;;;;2.92;82.21;93835.63;4372422;32;20435;-54
2022/12/09 11:45:07;;;;;;;5.60;5.07;;;;;;;2.76;83.17;93827.97;4365773;32;20281;-53
2022/12/09 11:47:42;;;;;;;3.10;3.00;;;;;;;2.91;83.24;93828.84;4326353;32;20388;-54
2022/12/09 11:50:32;;;;;;;6.60;5.00;;;;;;;2.78;83.00;93829.53;4353880;32;20333;-53
2022/12/09 11:53:38;;;;;;;4.87;4.50;;;;;;;2.81;82.93;93829.75;4352212;32;20384;-54
2022/12/09 11:56:39;;;;;;;5.53;5.10;;;;;;;3.13;81.67;93815.94;4324303;32;20304;-51
2022/12/09 11:59:17;;;;;;;4.43;4.10;;;;;;;3.38;81.08;93806.94;4305557;32;20329;-53
2022/12/09 12:02:04;;;;;;;4.47;4.17;;;;;;;2.94;82.16;93826.44;4337834;32;20360;-52
2022/12/09 12:04:55;;;;;;;5.20;4.73;;;;;;;3.10;81.78;93814.69;4337626;32;20437;-54
2022/12/09 12:07:37;;;;;;;5.73;5.37;;;;;;;3.00;82.00;93819.28;4310456;32;20333;-54